Date,TemperatureHighF,TemperatureAvgF,TemperatureLowF,DewpointHighF,DewpointAvgF,DewpointLowF,HumidityHigh,HumidityAvg,HumidityLow,PressureMaxIn,PressureMinIn,WindSpeedMaxMPH,WindSpeedAvgMPH,GustSpeedMaxMPH,PrecipitationSumIn
2013-1-1,41,34,27,32,25,16,84,69,60,29.85,29.69,24,9,26,0.03
2013-1-2,35,27,22,21,16,13,76,64,51,30.03,29.84,20,8,23,0.01
2013-1-3,27,22,18,21,14,9,87,73,58,30.08,29.98,16,6,17,0.02
2013-1-4,41,32,23,28,23,16,81,70,51,29.98,29.80,22,7,30,0.00
2013-1-5,46,35,26,29,25,22,82,69,50,30.24,29.82,23,6,26,0.00
2013-1-6,44,36,27,37,30,22,92,82,67,30.19,29.91,19,4,21,0.02
2013-1-7,44,35,28,37,30,24,92,83,69,30.39,29.94,23,6,27,0.00
2013-1-8,48,40,32,37,34,28,89,78,58,30.37,30.26,23,7,28,0.00
2013-1-9,48,40,31,43,36,28,92,85,76,30.37,29.98,29,6,34,0.00
2013-1-10,48,42,36,37,31,28,79,65,49,30.47,30.02,20,8,25,0.00
2013-1-11,44,39,30,38,33,26,89,81,72,30.48,30.21,17,4,21,0.08
2013-1-12,46,42,38,43,39,35,89,88,85,30.22,30.10,16,3,16,0.04
2013-1-13,51,47,43,48,44,40,89,89,89,30.15,30.01,17,4,18,0.02
2013-1-14,58,51,44,54,47,38,92,86,72,30.23,29.91,27,6,27,0.02
2013-1-15,44,41,39,40,37,36,92,87,82,30.26,30.17,13,3,17,0.18
2013-1-16,43,40,37,40,37,34,90,89,88,30.20,29.72,22,5,28,0.64
2013-1-17,44,38,33,38,33,27,90,83,69,30.03,29.82,20,6,21,0.00
2013-1-18,34,25,18,27,16,7,92,70,52,30.45,29.98,26,10,29,0.20
2013-1-19,47,39,18,42,32,9,86,76,64,30.41,29.92,32,12,41,0.08
2013-1-20,53,46,31,43,36,17,88,71,49,29.92,29.55,33,12,37,0.00
2013-1-21,37,29,26,27,17,11,89,60,40,30.07,29.73,19,5,24,0.00
2013-1-22,30,25,18,27,16,6,89,71,48,30.01,29.66,23,7,24,0.10
2013-1-23,20,16,13,7,2,0,67,56,47,30.10,29.99,25,8,26,0.01
2013-1-24,21,16,11,11,5,0,75,61,46,30.12,29.98,27,10,29,0.00
2013-1-25,27,20,13,14,7,4,71,57,43,30.26,30.00,24,6,28,0.00
2013-1-26,29,23,19,23,16,7,87,74,55,30.13,29.92,22,8,27,0.00
2013-1-27,31,25,18,17,13,10,72,61,52,30.41,30.13,26,10,28,0.01
2013-1-28,35,28,19,32,19,12,89,69,43,30.41,29.97,14,3,15,0.06
2013-1-29,40,37,34,37,34,31,89,89,88,30.19,29.95,13,3,17,0.16
2013-1-30,58,50,39,54,46,36,89,88,87,30.14,29.56,32,12,41,0.04
2013-1-31,56,49,34,53,40,18,89,74,50,29.57,29.06,39,13,41,0.38
2013-2-1,36,31,26,20,15,10,61,52,44,30.03,29.57,25,9,29,0.00
2013-2-2,33,28,22,25,15,9,84,59,37,30.22,30.02,17,5,22,0.00
2013-2-3,37,30,23,31,26,20,89,86,74,30.02,29.61,20,4,21,0.09
2013-2-4,34,28,25,27,18,10,89,65,46,29.92,29.64,20,9,24,0.06
2013-2-5,33,28,25,30,20,12,89,74,58,30.02,29.89,21,6,21,0.00
2013-2-6,41,34,30,34,28,18,89,79,61,30.23,29.87,16,4,16,0.06
2013-2-7,33,28,24,24,18,13,80,66,50,30.49,30.23,20,8,22,0.00
2013-2-8,36,33,30,32,29,24,89,84,77,30.46,29.23,60,26,61,0.81
2013-2-10,26,24,23,22,19,17,84,79,72,30.35,30.33,8,5,0,0.55
2013-2-11,47,38,25,43,35,21,92,88,82,30.34,29.58,24,7,30,0.62
2013-2-12,47,40,34,41,33,29,90,77,58,29.85,29.56,23,8,24,0.00
2013-2-13,47,36,30,32,28,25,88,73,47,29.86,29.64,15,4,16,0.00
2013-2-14,45,36,31,36,30,25,89,81,60,30.01,29.65,23,7,24,0.27
2013-2-15,48,40,32,40,35,28,92,82,70,30.03,29.92,23,6,24,0.00
2013-2-16,46,38,32,41,35,29,92,87,79,29.92,29.58,32,11,34,0.00
2013-2-17,36,27,21,33,23,12,92,86,70,29.58,29.21,38,19,41,0.00
2013-2-18,33,26,19,16,12,9,77,58,43,30.11,29.55,31,14,35,0.20
2013-2-19,46,38,28,42,29,13,92,72,48,30.14,29.57,24,7,25,0.70
2013-2-20,45,36,28,42,27,14,89,71,51,29.75,29.51,24,8,29,0.04
2013-2-21,36,30,27,30,20,17,82,66,52,30.03,29.74,30,11,34,0.00
2013-2-22,38,36,35,31,29,27,82,76,71,30.33,30.03,30,12,32,0.00
2013-2-23,40,36,30,36,32,27,89,84,77,30.32,29.85,23,6,23,0.33
2013-2-24,42,39,34,39,36,32,90,89,89,29.85,29.50,34,18,36,1.63
2013-2-25,46,36,28,37,30,24,96,79,57,30.22,29.80,24,10,27,0.06
2013-2-26,44,36,27,39,30,24,89,80,62,30.32,30.12,21,6,25,0.00
2013-2-27,45,42,40,42,39,36,89,88,83,30.13,29.53,44,21,47,0.58
2013-2-28,44,40,37,41,37,34,90,89,87,29.62,29.47,17,4,17,0.00
2013-3-1,39,37,35,36,34,32,92,87,80,29.63,29.46,22,8,22,0.05
2013-3-2,48,38,34,36,32,31,92,79,56,29.64,29.58,15,4,15,0.00
2013-3-3,46,38,35,37,33,31,92,83,70,29.60,29.54,11,4,15,0.00
2013-3-4,42,36,33,32,30,28,89,79,60,29.64,29.52,22,9,24,0.03
2013-3-5,46,39,33,41,34,28,88,84,77,30.02,29.64,23,11,26,0.03
2013-3-6,40,39,37,37,35,34,92,86,82,30.04,29.88,47,23,53,0.05
2013-3-7,38,37,36,35,34,33,89,88,86,29.89,29.78,51,28,60,0.70
2013-3-8,41,37,35,36,33,32,89,87,77,30.01,29.77,48,27,53,0.44
2013-3-9,39,37,36,34,33,32,86,84,81,30.29,30.00,40,19,46,0.00
2013-3-10,43,38,36,36,33,31,86,82,73,30.37,30.27,18,6,24,0.00
2013-3-11,48,40,36,41,36,32,92,85,76,30.32,30.18,18,6,20,0.00
2013-3-12,49,46,41,45,42,38,88,88,86,30.19,29.75,21,8,26,0.24
2013-3-13,55,47,40,48,39,27,89,76,55,29.76,29.67,21,6,23,0.71
2013-3-14,42,35,27,30,24,15,77,65,49,29.76,29.66,22,6,22,0.00
2013-3-15,42,32,24,29,19,13,75,60,38,29.83,29.64,23,9,27,0.00
2013-3-16,43,36,31,29,23,19,75,61,44,29.84,29.64,22,6,23,0.00
2013-3-17,43,34,26,30,22,15,92,63,43,30.26,29.83,20,7,23,0.00
2013-3-18,38,31,25,27,19,12,87,62,44,30.41,30.24,16,7,20,0.00
2013-3-19,42,36,29,38,33,26,89,88,87,30.24,29.45,38,18,40,0.77
2013-3-20,44,35,29,30,26,24,90,71,48,29.82,29.57,25,8,25,0.00
2013-3-21,48,36,28,34,30,25,88,79,56,29.81,29.53,23,10,25,0.05
2013-3-22,41,34,30,36,30,27,95,84,73,29.70,29.53,19,4,20,0.52
2013-3-23,45,37,30,30,26,23,82,65,48,29.73,29.60,21,9,24,0.00
2013-3-24,51,39,30,35,29,24,86,68,51,29.80,29.72,17,6,20,0.00
2013-3-25,43,38,30,36,32,27,88,80,67,29.73,29.41,34,14,36,0.00
2013-3-26,49,40,35,34,30,25,84,69,44,29.73,29.40,33,12,35,0.01
2013-3-27,56,44,34,37,32,29,85,67,36,29.81,29.72,18,6,20,0.00
2013-3-28,51,42,38,42,36,32,88,80,62,29.99,29.79,22,9,22,0.07
2013-3-29,58,46,37,42,37,33,87,72,50,30.01,29.96,14,4,14,0.00
2013-3-30,57,45,39,42,37,34,86,74,56,30.08,29.99,12,4,14,0.00
2013-3-31,55,44,34,42,36,30,92,74,43,30.11,29.77,22,5,28,0.04
2013-4-1,57,48,38,48,42,24,87,79,57,29.77,29.54,29,10,33,0.23
2013-4-2,45,38,32,25,20,14,59,48,35,29.93,29.74,23,9,26,0.00
2013-4-3,48,39,32,24,20,17,58,46,32,30.10,29.92,32,10,32,0.00
2013-4-4,51,40,33,34,25,20,80,56,35,30.27,30.07,24,8,24,0.00
2013-4-5,46,42,40,42,37,31,87,83,67,30.07,29.62,24,6,24,0.06
2013-4-6,45,38,33,31,23,15,72,54,31,30.33,29.81,28,10,28,0.00
2013-4-7,49,41,31,43,33,25,86,74,45,30.33,30.03,25,8,29,0.00
2013-4-8,64,51,44,50,44,38,86,75,52,30.11,29.95,24,7,27,0.00
2013-4-9,71,50,42,58,45,38,87,81,59,30.10,29.82,22,5,22,0.09
2013-4-10,55,46,43,49,42,39,87,85,75,30.00,29.85,14,5,17,0.27
2013-4-11,52,45,43,46,40,38,88,85,76,30.12,29.78,21,6,22,0.06
2013-4-12,43,42,38,40,36,32,88,81,67,30.14,29.62,33,16,34,0.97
2013-4-13,49,42,39,42,38,35,89,86,75,29.93,29.62,31,11,33,0.10
2013-4-14,56,46,41,45,39,34,88,75,55,30.16,29.91,14,5,15,0.01
2013-4-15,56,44,38,46,39,34,88,82,67,30.41,30.16,12,4,0,0.00
2013-4-16,56,48,40,48,42,36,88,82,69,30.41,30.09,28,8,31,0.00
2013-4-17,59,52,43,51,45,36,87,76,55,30.31,30.05,28,8,31,0.05
2013-4-18,53,46,39,44,40,35,87,80,69,30.42,30.17,15,6,19,0.00
2013-4-19,66,59,47,60,54,43,87,86,82,30.17,29.76,33,10,36,0.01
2013-4-20,63,53,44,59,49,40,87,84,73,30.16,29.67,38,9,39,0.43
2013-4-21,50,44,38,40,32,28,83,62,51,30.65,30.16,24,9,25,0.00
2013-4-22,48,43,39,41,35,31,82,74,61,30.72,30.54,28,15,29,0.00
2013-4-23,44,43,42,41,40,37,87,87,82,30.54,29.94,27,15,33,0.98
2013-4-24,58,48,44,52,44,40,87,86,76,29.95,29.76,31,13,33,0.17
2013-4-25,61,52,44,51,46,39,89,80,54,30.23,29.89,24,6,27,0.06
2013-4-26,57,47,41,48,42,37,87,82,69,30.40,30.22,12,3,0,0.00
2013-4-27,55,46,38,45,39,34,92,77,56,30.40,30.31,10,3,0,0.01
2013-4-28,59,50,38,49,42,34,86,77,63,30.34,30.25,11,3,14,0.00
2013-4-29,59,50,43,50,43,38,86,76,51,30.28,30.23,15,4,15,0.00
2013-4-30,60,48,38,46,40,33,86,73,41,30.35,30.24,8,2,0,0.00
2013-5-1,55,47,41,50,41,-100,86,84,78,30.47,30.34,9,3,0,0.00
2013-5-2,70,50,40,54,44,36,91,80,49,30.44,30.38,21,4,21,0.01
2013-5-3,54,47,42,47,42,37,85,82,75,30.45,30.34,25,10,27,0.00
2013-5-4,56,47,44,46,41,39,85,79,66,30.34,30.28,21,9,24,0.01
2013-5-5,58,48,42,48,42,38,85,81,70,30.29,30.25,19,7,22,0.00
2013-5-6,51,46,42,46,41,38,85,84,81,30.28,30.17,15,3,17,0.00
2013-5-7,62,53,46,56,48,42,89,83,77,30.19,30.13,14,3,15,0.00
2013-5-8,62,56,52,56,51,47,84,82,78,30.22,30.05,19,5,19,0.01
2013-5-9,66,56,52,59,50,47,83,80,76,30.05,29.88,18,5,18,0.06
2013-5-10,70,60,54,55,46,32,79,63,38,29.96,29.87,16,5,18,0.00
2013-5-11,66,60,54,34,-47,-100,38,9,1,29.93,29.72,27,8,33,0.38
2013-5-12,65,60,53,36,-62,-100,51,8,1,29.77,29.58,23,7,24,0.24
2013-5-13,60,53,46,42,36,25,63,53,40,29.97,29.78,24,8,29,0.00
2013-5-14,60,51,47,43,27,-100,63,47,2,30.02,29.93,24,9,24,0.02
2013-5-15,62,53,45,45,-6,-100,58,29,5,30.05,29.66,25,7,29,0.02
2013-5-16,80,66,55,56,0,-100,61,30,2,29.75,29.63,26,9,26,0.00
2013-5-17,68,58,50,48,-9,-100,59,28,3,30.20,29.74,25,8,27,0.00
2013-5-18,75,59,48,52,-31,-100,59,22,3,30.30,30.19,15,5,16,0.00
2013-5-19,73,61,52,52,-24,-100,52,21,2,30.34,30.24,20,5,22,0.03
2013-5-20,79,65,55,-100,-100,-100,0,0,100,30.25,29.91,16,5,17,0.54
2013-5-21,78,62,55,-5,-100,-100,4,0,4,29.96,29.85,18,4,18,0.00
2013-5-22,73,59,53,4,-99,-100,7,0,5,29.94,29.86,21,6,24,0.01
2013-5-23,73,66,61,-100,-100,-100,0,0,100,29.94,29.87,33,12,36,0.63
2013-5-24,65,62,55,-100,-100,-100,0,0,100,29.87,29.68,29,8,35,1.53
2013-5-25,107,55,46,100,-86,-100,100,7,100,29.71,29.63,18,7,19,0.14
2013-5-26,58,49,42,28,-47,-100,32,11,6,30.05,29.68,17,7,22,0.04
2013-5-27,72,59,49,49,-1,-100,59,25,1,30.15,30.04,16,6,17,0.00
2013-5-28,68,58,48,44,-62,-100,47,8,1,30.23,30.14,14,4,15,0.00
2013-5-29,69,60,55,-100,-100,-100,0,0,100,30.21,29.99,25,7,27,0.71
2013-5-30,88,74,63,53,-74,-100,31,4,2,30.06,29.99,21,6,23,0.08
2013-5-31,93,78,68,70,-3,-100,55,28,2,30.06,29.94,21,7,27,0.00
2013-6-1,86,74,66,61,-40,-100,45,13,1,29.97,29.90,25,10,31,0.00
2013-6-2,76,69,65,-100,-100,-100,0,0,100,29.91,29.81,31,12,38,0.00
2013-6-3,67,65,63,-100,-100,-100,0,0,100,29.84,29.76,30,9,32,1.87
2013-6-4,71,62,52,52,-25,-100,54,21,1,30.05,29.76,20,6,20,0.00
2013-6-5,73,60,50,53,-57,-100,50,11,1,30.17,30.04,12,4,15,0.00
2013-6-6,66,60,53,-100,-100,-100,0,0,100,30.18,30.07,15,4,17,0.00
2013-6-7,63,57,56,-100,-100,-100,0,0,100,30.08,29.75,22,10,28,1.31
2013-6-8,73,64,58,-100,-100,-100,0,0,100,29.96,29.53,29,9,31,0.18
2013-6-9,81,74,62,100,-57,-100,50,8,4,30.12,29.96,20,5,20,0.00
2013-6-10,81,81,81,-100,-100,-100,0,0,100,30.18,29.99,18,4,20,0.36
2013-6-11,81,81,81,-100,-100,-100,0,0,100,29.99,29.49,25,8,28,1.42
2013-6-12,81,81,81,-100,-100,-100,0,0,100,29.75,29.52,21,6,27,0.02
2013-6-13,81,81,81,-100,-100,-100,0,0,100,29.79,29.59,25,6,25,0.24
2013-6-14,81,81,81,-100,-100,-100,0,0,100,29.72,29.51,36,14,40,0.84
2013-6-15,81,81,81,100,-14,-100,41,16,2,29.91,29.70,17,6,19,0.00
2013-6-16,81,81,81,100,-45,-100,41,9,3,29.91,29.72,28,7,28,0.00
2013-6-17,81,81,81,100,-93,-100,21,0,1,29.88,29.74,21,7,24,0.00
2013-6-18,81,81,81,-100,-100,-100,0,0,100,29.91,29.83,17,4,19,0.00
2013-6-19,81,81,81,-100,-100,-100,0,0,100,30.12,29.81,25,9,28,0.04
2013-6-20,81,81,81,100,-19,-100,40,14,1,30.25,30.12,20,6,22,0.00
2013-6-21,81,81,81,100,30,-100,38,17,1,30.25,30.19,24,9,27,0.00
2013-6-22,81,63,41,100,-39,-100,40,9,2,30.21,30.13,21,8,24,0.00
2013-6-23,41,41,41,-100,-100,-100,0,0,100,30.15,30.01,24,8,26,0.00
2013-6-24,122,62,41,100,-90,-100,97,9,45,30.02,29.83,24,8,24,0.05
2013-6-25,123,88,73,-100,-100,-100,0,0,100,29.88,29.72,21,6,22,0.00
2013-6-26,140,93,57,100,-97,-100,100,3,33,29.81,29.69,17,4,21,0.02
2013-6-27,140,107,53,-100,-100,-100,0,0,100,29.83,29.73,10,3,0,0.01
2013-6-28,140,111,67,-100,-100,-100,0,0,100,29.74,29.54,25,8,26,0.50
2013-6-29,137,102,77,-100,-100,-100,0,0,100,29.73,29.53,23,8,25,0.76
2013-6-30,139,94,52,-100,-100,-100,0,0,100,29.96,29.73,20,6,20,0.04
2013-7-1,140,112,59,-100,-100,-100,0,0,100,30.10,29.95,21,7,23,0.12
2013-7-2,134,114,82,-100,-100,-100,0,0,100,30.18,30.09,23,8,24,0.00
2013-7-3,82,69,41,-100,-100,-100,38,13,38,30.18,30.15,22,8,24,0.00
2013-7-4,140,116,0,72,-58,-100,88,49,38,30.18,30.08,20,7,24,0.22
2013-7-5,96,82,74,78,72,67,88,73,49,30.14,30.03,23,8,26,0.00
2013-7-6,96,84,75,77,30,-100,86,72,49,30.05,29.93,15,5,18,0.00
2013-7-7,87,84,75,75,-44,-100,90,74,60,29.99,29.90,14,5,17,0.00
2013-7-8,93,78,69,75,71,68,97,80,51,30.01,29.90,17,5,19,0.00
2013-7-9,76,71,69,72,68,66,97,91,82,30.07,30.00,10,2,0,0.00
2013-7-10,82,74,69,74,71,68,99,92,74,30.06,29.82,21,6,23,0.00
2013-7-11,78,74,72,75,72,69,97,94,88,29.88,29.78,20,6,20,0.05
2013-7-12,72,68,65,70,67,64,99,94,80,30.15,29.87,20,8,21,0.01
2013-7-13,72,68,66,70,67,65,99,97,90,30.28,30.15,11,4,0,0.39
2013-7-14,89,74,68,78,72,68,100,93,64,30.27,30.17,12,3,15,0.05
2013-7-15,92,77,72,78,73,71,99,88,62,30.17,30.07,9,2,0,0.00
2013-7-16,92,78,68,73,70,66,96,80,52,30.13,30.05,19,4,20,0.46
2013-7-17,79,74,68,72,69,66,98,86,74,30.16,30.01,16,4,17,0.24
2013-7-18,90,79,73,77,72,69,94,81,61,30.01,29.93,16,6,21,0.45
2013-7-19,93,82,73,80,76,71,97,82,62,29.94,29.74,24,9,29,0.00
2013-7-20,89,82,76,78,76,72,93,82,64,29.76,29.64,26,10,27,0.24
2013-7-21,76,72,67,72,68,65,95,87,79,29.97,29.76,11,4,15,0.02
2013-7-22,72,69,67,69,67,65,99,94,88,29.99,29.86,12,4,0,0.00
2013-7-23,84,74,68,77,72,67,99,92,78,29.86,29.53,22,6,26,0.00
2013-7-24,92,79,70,76,72,67,98,81,55,29.86,29.55,16,3,21,0.01
2013-7-25,70,66,64,68,62,59,97,88,81,30.02,29.86,25,13,28,0.18
2013-7-26,67,66,64,66,65,64,99,98,97,29.97,29.81,27,12,31,1.59
2013-7-27,83,75,67,73,68,65,96,80,61,30.04,29.99,14,6,19,0.00
2013-7-28,77,71,65,75,8,-100,99,94,84,30.01,29.91,9,2,0,0.45
2013-7-29,76,73,69,72,-12,-100,98,89,80,30.02,29.96,14,4,15,0.00
2013-7-30,73,73,73,-100,-100,-100,96,96,96,30.05,29.97,11,4,0,0.00
2013-7-31,84,75,69,69,16,-100,86,74,57,30.09,30.04,9,4,0,0.00
2013-8-1,72,70,66,68,-60,-100,97,84,80,30.04,29.88,17,4,17,0.00
2013-8-2,84,71,64,74,66,-100,98,87,60,29.88,29.77,15,4,19,0.08
2013-8-3,75,71,68,68,67,64,94,87,72,29.86,29.77,19,6,20,0.03
2013-8-4,84,71,61,68,40,-100,96,78,53,29.82,29.74,21,4,24,0.01
2013-8-5,78,67,61,62,25,-100,95,71,38,30.00,29.81,17,6,18,0.00
2013-8-6,78,66,55,62,37,-100,96,74,53,30.15,30.00,11,3,0,0.00
2013-8-7,74,67,59,65,46,-100,93,79,62,30.17,30.12,13,4,15,0.00
2013-8-8,72,63,63,70,-78,-100,93,93,91,30.13,30.03,22,6,27,0.00
2013-8-9,74,72,66,73,70,65,99,95,91,30.06,29.76,26,8,27,0.34
2013-8-10,86,76,68,72,68,62,98,79,47,29.96,29.76,15,5,19,0.00
2013-8-11,82,69,62,62,59,52,93,71,35,30.04,29.96,12,4,15,0.00
2013-8-12,80,71,63,70,66,60,95,83,60,30.01,29.90,18,5,19,0.00
2013-8-13,72,68,65,70,67,64,99,96,90,29.91,29.64,10,2,12,0.01
2013-8-14,78,70,65,66,61,55,99,76,50,29.90,29.63,14,5,18,0.00
2013-8-15,80,69,60,60,55,48,85,65,34,30.10,29.90,15,5,18,0.00
2013-8-16,74,64,61,62,59,57,93,83,65,30.12,30.08,8,3,0,0.00
2013-8-17,82,72,62,67,64,60,97,77,59,30.25,30.19,11,4,0,0.00
2013-8-18,73,66,61,67,63,59,99,89,70,30.25,30.06,10,2,0,0.00
2013-8-19,82,69,58,68,63,57,97,82,54,30.06,29.92,12,4,16,0.00
2013-8-20,85,74,68,70,54,-100,91,76,54,30.06,29.94,14,4,14,0.00
2013-8-21,87,75,65,71,67,64,95,78,53,30.12,30.01,15,4,18,0.01
2013-8-22,85,75,69,74,70,65,96,85,67,30.02,29.82,18,7,23,0.00
2013-8-23,77,70,62,70,51,-100,96,84,64,30.06,29.78,27,7,27,0.00
2013-8-24,78,66,56,62,58,51,93,77,50,30.29,30.06,16,7,17,0.00
2013-8-25,82,67,56,64,58,51,94,74,38,30.33,30.18,12,4,12,0.00
2013-8-26,77,71,66,67,64,58,89,79,63,30.18,29.86,25,8,28,0.00
2013-8-27,71,68,64,70,67,64,99,95,88,29.86,29.81,11,2,12,0.07
2013-8-28,71,66,64,68,65,63,99,96,88,29.92,29.82,10,4,0,0.03
2013-8-29,68,64,61,65,63,58,99,94,87,30.01,29.90,19,8,21,0.02
2013-8-30,78,67,61,69,63,59,97,87,70,29.98,29.83,15,6,17,0.00
2013-8-31,77,74,71,73,70,69,94,91,84,29.85,29.81,20,8,23,0.00
2013-9-1,77,72,68,74,71,67,99,96,90,29.89,29.80,21,7,24,0.39
2013-9-2,77,69,65,73,30,-100,99,95,81,29.87,29.72,17,4,17,0.03
2013-9-3,78,69,67,73,-90,-100,96,95,84,29.78,29.67,19,3,24,0.44
2013-9-4,79,68,61,67,9,-100,99,88,63,29.90,29.76,12,4,15,0.00
2013-9-5,76,64,54,67,60,51,96,86,70,30.09,29.84,19,6,21,0.05
2013-9-6,73,61,52,54,51,47,97,71,44,30.20,30.08,17,5,19,0.00
2013-9-7,66,56,54,57,-60,-100,84,82,71,30.08,29.85,21,6,24,0.00
2013-9-8,80,74,65,66,-15,-100,87,70,61,30.03,29.71,25,8,28,0.00
2013-9-9,80,62,54,54,6,-100,88,66,44,30.21,30.03,18,6,20,0.00
2013-9-10,74,66,58,66,61,54,89,82,72,30.17,30.03,23,8,26,0.00
2013-9-11,88,76,70,76,71,66,95,86,68,30.08,29.96,22,9,22,0.00
2013-9-12,80,73,70,73,70,68,96,90,77,29.98,29.69,24,10,28,0.00
2013-9-13,73,69,63,72,68,61,99,95,87,29.70,29.55,21,4,24,0.12
2013-9-14,76,64,56,64,59,54,97,85,62,30.01,29.69,12,4,0,0.00
2013-9-15,75,61,52,60,54,51,99,80,52,30.14,30.01,14,3,15,0.00
2013-9-16,66,61,56,61,51,-100,94,87,74,30.15,29.98,30,5,30,0.03
2013-9-17,63,55,46,53,44,-100,93,73,52,30.35,30.14,29,13,32,0.01
2013-9-18,75,60,46,56,49,37,97,72,26,30.29,30.12,13,4,14,0.00
2013-9-19,79,63,54,61,56,52,93,81,45,30.12,30.02,10,3,0,0.00
2013-9-20,83,66,57,64,59,55,96,80,44,30.07,30.00,12,4,13,0.00
2013-9-21,72,64,57,65,61,56,99,90,77,30.03,29.77,18,5,19,0.01
2013-9-22,68,64,57,67,62,51,98,94,81,29.78,29.64,17,5,20,0.15
2013-9-23,65,57,50,52,48,45,87,74,55,29.95,29.75,17,7,18,0.00
2013-9-24,65,55,47,50,47,44,92,77,53,29.94,29.80,14,4,16,0.00
2013-9-25,70,56,47,56,38,-100,95,80,55,29.94,29.84,17,4,18,0.00
2013-9-26,70,59,52,55,52,48,95,79,56,30.07,29.93,18,8,19,0.00
2013-9-27,67,59,50,58,54,49,96,85,70,30.22,30.06,20,10,22,0.00
2013-9-28,74,59,49,63,55,48,99,88,68,30.28,30.20,11,3,0,0.00
2013-9-29,65,59,54,58,54,51,96,86,75,30.23,30.06,12,6,15,0.00
2013-9-30,66,60,55,60,57,54,99,91,79,30.06,29.91,18,7,18,0.00
2013-10-1,74,62,56,60,55,50,96,80,52,29.91,29.83,13,5,15,0.00
2013-10-2,82,69,60,65,60,57,93,76,51,29.91,29.79,14,5,17,0.00
2013-10-3,80,66,60,63,58,54,91,75,46,30.05,29.90,12,4,14,0.00
2013-10-4,73,61,56,61,57,54,98,89,64,30.05,30.00,10,3,0,0.15
2013-10-5,67,61,58,63,59,57,98,94,85,30.09,30.02,8,2,0,0.00
2013-10-6,61,59,56,60,34,-100,99,93,79,30.17,30.08,19,7,20,0.11
2013-10-7,71,64,60,67,62,59,99,95,85,30.11,29.85,21,8,22,0.08
2013-10-8,68,59,53,65,54,48,98,83,62,30.32,29.84,24,8,25,0.10
2013-10-9,60,57,53,50,46,-100,81,73,66,30.41,30.31,22,11,24,0.00
2013-10-10,62,58,56,58,55,50,96,88,80,30.32,30.11,18,8,20,0.00
2013-10-11,70,61,56,62,52,-100,98,90,74,30.11,30.05,17,8,18,0.00
2013-10-12,61,58,55,58,55,50,95,90,81,30.33,30.08,25,12,29,0.00
2013-10-13,59,55,51,51,48,44,86,77,66,30.39,30.31,24,9,24,0.00
2013-10-14,60,52,42,50,47,41,98,84,68,30.37,30.24,9,2,0,0.00
2013-10-15,62,55,46,57,52,45,99,90,75,30.25,30.14,11,4,0,0.01
2013-10-16,59,58,56,58,15,-100,97,95,87,30.15,29.87,19,7,20,0.01
2013-10-17,72,62,56,64,59,56,99,92,74,29.88,29.73,14,3,17,0.01
2013-10-18,74,64,57,64,40,-100,98,80,50,29.88,29.62,20,5,20,0.01
2013-10-19,57,55,54,54,-87,-100,93,84,83,29.97,29.74,13,4,14,0.02
2013-10-20,66,57,48,56,48,40,97,74,42,29.99,29.68,17,4,18,0.00
2013-10-21,70,56,46,48,44,40,87,67,38,30.10,29.99,12,4,13,0.00
2013-10-22,69,59,53,58,54,47,94,82,59,30.01,29.68,16,4,16,0.00
2013-10-23,57,49,44,47,43,39,95,79,58,29.76,29.55,11,5,0,0.21
2013-10-24,57,48,43,43,37,29,96,67,41,29.86,29.59,16,6,17,0.00
2013-10-25,57,48,43,41,35,31,77,61,46,30.13,29.86,14,6,21,0.00
2013-10-26,57,49,39,44,38,32,87,65,49,30.15,29.88,29,8,33,0.00
2013-10-27,62,53,47,45,39,32,84,60,46,30.03,29.80,16,6,19,0.01
2013-10-28,62,51,42,43,38,33,80,62,40,30.29,30.03,21,6,25,0.00
2013-10-29,59,47,36,42,37,33,89,69,50,30.37,30.29,17,5,18,0.00
2013-10-30,51,45,35,48,42,33,98,90,80,30.35,30.18,8,1,0,0.06
2013-10-31,64,56,43,60,52,42,99,90,72,30.23,29.87,22,6,29,0.00
2013-11-1,68,64,61,65,61,56,97,91,82,29.87,29.52,30,13,40,0.14
2013-11-2,62,57,52,56,54,50,95,89,79,29.69,29.57,11,2,13,0.04
2013-11-3,54,47,42,52,42,32,93,82,65,30.31,29.66,31,15,34,0.01
2013-11-4,47,41,39,34,31,28,72,66,54,30.66,30.31,28,13,28,0.00
2013-11-5,52,43,37,38,35,31,91,73,58,30.67,30.51,10,2,0,0.00
2013-11-6,57,50,40,53,45,37,96,86,66,30.52,30.08,17,4,18,0.00
2013-11-7,62,56,44,60,-29,-100,98,93,87,30.08,29.65,25,8,33,1.12
2013-11-8,54,45,40,41,34,27,87,66,51,30.04,29.76,24,8,25,0.01
2013-11-9,49,42,38,33,29,26,71,60,48,30.15,30.04,16,6,21,0.00
2013-11-10,58,49,39,52,42,32,95,78,61,30.06,29.69,23,6,28,0.15
2013-11-11,54,48,42,45,36,31,75,65,44,30.05,29.81,24,8,26,0.01
2013-11-12,53,43,32,45,-33,-100,95,76,68,30.12,29.85,24,8,26,0.01
2013-11-13,42,34,31,30,22,-100,79,66,55,30.23,30.12,21,8,24,0.01
2013-11-14,53,43,31,35,29,20,78,59,38,30.18,30.03,19,6,23,0.00
2013-11-15,60,51,44,48,40,29,90,67,41,30.20,30.12,22,7,27,0.00
2013-11-16,60,49,43,46,41,31,95,75,37,30.31,30.19,14,3,15,0.00
2013-11-17,57,51,42,55,49,41,100,95,77,30.31,29.89,16,4,16,0.16
2013-11-18,62,57,51,61,22,-100,99,90,63,29.89,29.56,31,9,33,0.49
2013-11-19,51,42,35,43,30,-100,79,63,51,30.22,29.63,23,10,26,0.00
2013-11-20,45,38,34,31,27,24,72,64,53,30.57,30.22,24,10,27,0.00
2013-11-21,52,41,32,36,32,28,86,70,50,30.60,30.39,18,4,19,0.00
2013-11-22,52,47,39,52,45,36,98,93,85,30.38,29.81,12,3,16,0.22
2013-11-23,49,44,35,48,34,20,98,68,40,29.84,29.73,21,8,24,0.00
2013-11-24,34,28,25,21,14,8,78,54,43,30.10,29.73,33,13,35,0.00
2013-11-25,34,28,23,24,11,1,77,50,31,30.35,30.09,24,7,27,0.00
2013-11-26,48,42,31,47,36,25,97,78,62,30.31,30.04,21,4,22,0.10
2013-11-27,60,53,41,59,52,40,99,98,95,30.04,29.11,38,12,40,1.48
2013-11-28,41,35,29,40,25,16,97,67,50,30.39,29.40,24,8,32,0.00
2013-11-29,40,32,27,26,19,15,70,59,49,30.67,30.38,14,6,18,0.00
2013-11-30,38,32,26,28,22,16,79,67,50,30.73,30.44,15,4,17,0.00
2013-12-1,49,45,36,48,32,-100,97,84,71,30.44,29.93,20,7,21,0.30
2013-12-2,48,43,40,47,42,39,98,96,94,29.94,29.86,10,3,0,0.00
2013-12-3,45,42,40,43,40,37,97,93,88,29.89,29.78,18,7,19,0.00
2013-12-4,46,39,34,37,34,30,90,82,63,30.19,29.89,14,4,16,0.00
2013-12-5,56,47,35,55,45,33,99,93,86,30.21,29.93,16,6,22,0.01
2013-12-6,57,50,39,57,50,38,99,97,92,30.10,29.87,20,7,24,0.30
2013-12-7,40,37,32,39,34,23,98,87,67,30.41,30.00,17,8,19,0.39
2013-12-8,38,32,30,27,24,23,79,71,60,30.56,30.40,15,5,17,0.00
2013-12-9,49,41,34,48,39,26,100,94,69,30.46,29.82,32,12,34,0.36
2013-12-10,39,35,30,38,32,20,98,92,67,29.97,29.75,26,6,27,0.06
2013-12-11,36,31,28,24,20,17,83,65,49,30.22,29.97,24,9,30,0.09
2013-12-12,31,26,20,22,14,8,77,61,45,30.22,30.08,21,7,21,0.00
2013-12-13,35,27,19,20,15,8,72,59,46,30.31,29.98,21,7,24,0.01
2013-12-14,33,26,21,32,20,12,96,79,64,30.54,30.13,35,12,36,0.00
2013-12-15,52,36,28,52,35,24,99,94,76,30.13,29.26,49,15,51,0.85
2013-12-16,35,30,25,26,18,9,83,60,41,30.18,29.73,21,7,21,0.00
2013-12-17,43,30,19,42,23,11,97,77,51,30.25,29.78,27,7,31,0.21
2013-12-18,38,34,30,37,30,24,97,87,72,30.07,29.69,20,9,25,0.02
2013-12-19,48,38,30,37,29,24,80,70,55,30.10,29.96,30,7,33,0.00
2013-12-20,56,46,36,48,39,30,93,79,67,30.13,29.93,24,7,25,0.00
2013-12-21,57,53,49,54,50,46,95,90,81,29.99,29.89,29,10,30,0.00
2013-12-22,61,55,45,60,52,-100,97,95,90,29.99,29.83,40,12,41,0.00
2013-12-23,48,44,40,47,44,39,100,97,95,30.04,29.90,19,2,20,0.51
2013-12-24,41,36,30,40,34,24,98,92,75,30.14,29.96,21,9,24,0.27
2013-12-25,30,25,21,24,20,14,89,81,69,30.52,30.14,22,7,25,0.00
2013-12-26,41,32,22,37,30,20,97,90,73,30.48,30.02,21,5,21,0.31
2013-12-27,39,33,31,29,26,22,90,74,59,30.24,30.16,16,6,19,0.00
2013-12-28,50,39,30,37,30,24,89,71,54,30.21,29.98,22,7,32,0.00
2013-12-29,54,45,39,54,42,34,99,89,76,30.03,29.24,26,8,34,0.89
2013-12-30,44,38,27,43,33,19,98,83,61,30.10,29.34,21,8,27,0.00
2013-12-31,31,27,23,27,7,-100,93,75,63,30.13,29.99,18,6,21,0.02
2014-1-1,32,26,22,17,14,10,76,59,46,30.34,30.13,21,6,25,0.00
2014-1-2,33,29,26,32,16,-100,97,90,64,30.33,29.61,40,18,45,0.00